createdAt,value
2018-06-17T00:01:40.109Z,19.52
2018-06-17T00:04:06.404Z,19.51
2018-06-17T00:06:32.698Z,19.52
2018-06-17T00:08:58.993Z,19.51
2018-06-17T00:11:25.320Z,19.47
2018-06-17T00:13:51.618Z,19.45
2018-06-17T00:16:17.911Z,19.43
2018-06-17T00:18:44.213Z,19.40
2018-06-17T00:21:10.511Z,19.40
2018-06-17T00:23:36.844Z,19.38
2018-06-17T00:26:03.138Z,19.36
2018-06-17T00:28:29.440Z,19.35
2018-06-17T00:30:55.740Z,19.36
2018-06-17T00:33:22.046Z,19.32
2018-06-17T00:35:48.375Z,19.31
2018-06-17T00:38:14.679Z,19.30
2018-06-17T00:40:40.971Z,19.26
2018-06-17T00:43:07.272Z,19.25
2018-06-17T00:45:33.567Z,19.27
2018-06-17T00:47:59.897Z,19.29
2018-06-17T00:50:26.192Z,19.30
2018-06-17T00:52:52.492Z,19.30
2018-06-17T00:55:18.795Z,19.28
2018-06-17T00:57:45.084Z,19.27
2018-06-17T01:00:11.420Z,19.25
2018-06-17T01:02:37.710Z,19.26
2018-06-17T01:05:04.008Z,19.26
2018-06-17T01:07:30.311Z,19.22
2018-06-17T01:09:56.601Z,19.22
2018-06-17T01:12:22.928Z,19.20
2018-06-17T01:14:49.223Z,19.17
2018-06-17T01:17:15.512Z,19.11
2018-06-17T01:19:41.810Z,19.08
2018-06-17T01:22:08.102Z,19.07
2018-06-17T01:24:34.431Z,19.07
2018-06-17T01:27:00.716Z,19.07
2018-06-17T01:29:27.014Z,19.08
2018-06-17T01:31:53.313Z,19.10
2018-06-17T01:34:19.605Z,19.11
2018-06-17T01:36:45.949Z,19.11
2018-06-17T01:39:12.244Z,19.11
2018-06-17T01:41:38.537Z,19.12
2018-06-17T01:44:04.865Z,19.13
2018-06-17T01:46:31.162Z,19.12
2018-06-17T01:48:57.464Z,19.12
2018-06-17T01:51:23.806Z,19.11
2018-06-17T01:53:50.100Z,19.11
2018-06-17T01:56:16.391Z,19.06
2018-06-17T01:58:42.688Z,19.03
2018-06-17T02:01:08.983Z,19.04
2018-06-17T02:03:35.304Z,19.05
2018-06-17T02:06:01.596Z,19.05
2018-06-17T02:08:27.889Z,19.04
2018-06-17T02:10:54.189Z,19.04
2018-06-17T02:13:20.482Z,19.01
2018-06-17T02:15:46.808Z,19.00
2018-06-17T02:18:13.100Z,19.00
2018-06-17T02:20:39.397Z,18.99
2018-06-17T02:23:05.699Z,18.99
2018-06-17T02:25:31.995Z,18.98
2018-06-17T02:27:58.339Z,18.97
2018-06-17T02:30:24.641Z,18.95
2018-06-17T02:32:50.935Z,18.93
2018-06-17T02:35:17.262Z,18.93
2018-06-17T02:37:43.572Z,18.93
2018-06-17T02:40:09.865Z,18.91
2018-06-17T02:42:36.162Z,18.89
2018-06-17T02:45:02.457Z,18.88
2018-06-17T02:47:28.787Z,18.88
2018-06-17T02:49:55.076Z,18.88
2018-06-17T02:52:21.375Z,18.86
2018-06-17T02:54:47.666Z,18.85
2018-06-17T02:57:13.954Z,18.84
2018-06-17T02:59:40.276Z,18.84
2018-06-17T03:02:06.568Z,18.83
2018-06-17T03:04:32.862Z,18.82
2018-06-17T03:06:59.158Z,18.80
2018-06-17T03:09:25.455Z,18.80
2018-06-17T03:11:51.801Z,18.77
2018-06-17T03:14:18.095Z,18.75
2018-06-17T03:16:44.386Z,18.74
2018-06-17T03:19:10.683Z,18.76
2018-06-17T03:21:36.985Z,18.78
2018-06-17T03:24:03.318Z,18.72
2018-06-17T03:26:29.611Z,18.65
2018-06-17T03:28:55.906Z,18.64
2018-06-17T03:31:22.205Z,18.66
2018-06-17T03:33:48.501Z,18.64
2018-06-17T03:36:14.820Z,18.65
2018-06-17T03:38:41.118Z,18.70
2018-06-17T03:41:07.414Z,18.72
2018-06-17T03:43:33.720Z,18.74
2018-06-17T03:46:00.019Z,18.76
2018-06-17T03:48:26.354Z,18.77
2018-06-17T03:50:52.646Z,18.79
2018-06-17T03:53:18.948Z,18.80
2018-06-17T03:55:45.246Z,18.74
2018-06-17T03:58:11.544Z,18.76
2018-06-17T04:00:37.877Z,18.73
2018-06-17T04:03:04.177Z,18.71
2018-06-17T04:05:30.470Z,18.65
2018-06-17T04:07:56.766Z,18.67
2018-06-17T04:10:23.072Z,18.66
2018-06-17T04:12:49.387Z,18.65
2018-06-17T04:15:15.688Z,18.60
2018-06-17T04:17:41.990Z,18.58
2018-06-17T04:20:08.289Z,18.61
2018-06-17T04:22:34.583Z,18.70
2018-06-17T04:25:00.908Z,18.76
2018-06-17T04:27:27.201Z,18.79
2018-06-17T04:29:53.494Z,18.77
2018-06-17T04:32:19.822Z,18.76
2018-06-17T04:34:46.111Z,18.81
2018-06-17T04:37:12.402Z,18.84
2018-06-17T04:39:38.700Z,18.88
2018-06-17T04:42:04.995Z,18.89
2018-06-17T04:44:31.326Z,18.94
2018-06-17T04:46:57.624Z,18.94
2018-06-17T04:49:23.919Z,18.93
2018-06-17T04:51:50.210Z,18.92
2018-06-17T04:54:16.501Z,18.90
2018-06-17T04:56:42.825Z,18.94
2018-06-17T04:59:09.116Z,18.98
2018-06-17T05:01:35.411Z,19.04
2018-06-17T05:04:01.720Z,19.07
2018-06-17T05:06:28.008Z,19.08
2018-06-17T05:08:54.323Z,19.07
2018-06-17T05:11:20.607Z,19.09
2018-06-17T05:13:46.895Z,19.14
2018-06-17T05:16:13.191Z,19.22
2018-06-17T05:18:39.520Z,19.24
2018-06-17T05:21:05.851Z,19.26
2018-06-17T05:23:32.144Z,19.29
2018-06-17T05:25:58.429Z,19.33
2018-06-17T05:28:24.757Z,19.39
2018-06-17T05:30:51.048Z,19.45
2018-06-17T05:33:17.335Z,19.48
2018-06-17T05:35:43.655Z,19.47
2018-06-17T05:38:09.949Z,19.45
2018-06-17T05:40:36.235Z,19.45
2018-06-17T05:43:02.569Z,19.44
2018-06-17T05:45:28.861Z,19.46
2018-06-17T05:47:55.167Z,19.47
2018-06-17T05:50:21.489Z,19.49
2018-06-17T05:52:47.787Z,19.52
2018-06-17T05:55:14.075Z,19.54
2018-06-17T05:57:40.411Z,19.59
2018-06-17T06:00:06.710Z,19.60
2018-06-17T06:02:33.018Z,19.76
2018-06-17T06:04:59.340Z,19.84
2018-06-17T06:07:25.657Z,19.94
2018-06-17T06:09:51.955Z,19.97
2018-06-17T06:12:18.273Z,20.05
2018-06-17T06:14:44.572Z,20.06
2018-06-17T06:17:10.869Z,20.02
2018-06-17T06:19:37.188Z,20.06
2018-06-17T06:22:03.481Z,20.14
2018-06-17T06:24:29.771Z,20.33
2018-06-17T06:26:56.099Z,20.58
2018-06-17T06:29:22.388Z,20.83
2018-06-17T06:31:48.681Z,21.03
2018-06-17T06:34:15.002Z,21.22
2018-06-17T06:36:41.299Z,21.41
2018-06-17T06:39:07.595Z,21.59
2018-06-17T06:41:33.938Z,21.69
2018-06-17T06:44:00.229Z,21.78
2018-06-17T06:46:26.525Z,21.85
2018-06-17T06:48:52.814Z,22.02
2018-06-17T06:51:19.109Z,22.07
2018-06-17T06:53:45.402Z,22.23
2018-06-17T06:56:11.700Z,22.37
2018-06-17T06:58:37.989Z,22.46
2018-06-17T07:01:04.276Z,22.49
2018-06-17T07:03:30.609Z,22.58
2018-06-17T07:05:56.905Z,22.59
2018-06-17T07:08:23.194Z,22.61
2018-06-17T07:10:49.512Z,22.78
2018-06-17T07:13:15.801Z,23.00
2018-06-17T07:15:42.094Z,22.92
2018-06-17T07:18:08.389Z,22.77
2018-06-17T07:20:34.681Z,22.73
2018-06-17T07:23:00.972Z,22.70
2018-06-17T07:25:27.265Z,22.90
2018-06-17T07:27:53.553Z,23.10
2018-06-17T07:30:19.839Z,23.35
2018-06-17T07:32:46.172Z,23.53
2018-06-17T07:35:12.481Z,23.72
2018-06-17T07:37:38.766Z,23.87
2018-06-17T07:40:05.059Z,24.01
2018-06-17T07:42:31.347Z,24.15
2018-06-17T07:44:57.651Z,24.25
2018-06-17T07:47:23.972Z,24.34
2018-06-17T07:49:50.261Z,24.46
2018-06-17T07:52:16.563Z,24.60
2018-06-17T07:54:42.879Z,24.69
2018-06-17T07:57:09.171Z,24.75
2018-06-17T07:59:35.497Z,24.78
2018-06-17T08:02:01.790Z,24.82
2018-06-17T08:04:28.079Z,24.93
2018-06-17T08:06:54.369Z,25.04
2018-06-17T08:09:20.660Z,25.12
2018-06-17T08:11:46.958Z,25.19
2018-06-17T08:14:13.290Z,25.27
2018-06-17T08:16:39.576Z,25.33
2018-06-17T08:19:05.870Z,25.37
2018-06-17T08:21:32.211Z,25.40
2018-06-17T08:23:58.499Z,25.45
2018-06-17T08:26:24.792Z,25.55
2018-06-17T08:28:51.095Z,25.62
2018-06-17T08:31:17.392Z,25.65
2018-06-17T08:33:43.729Z,25.70
2018-06-17T08:36:10.021Z,25.76
2018-06-17T08:38:36.310Z,25.85
2018-06-17T08:41:02.596Z,25.95
2018-06-17T08:43:28.882Z,26.04
2018-06-17T08:45:55.205Z,26.11
2018-06-17T08:48:21.502Z,26.16
2018-06-17T08:50:47.828Z,26.24
2018-06-17T08:53:14.083Z,26.30
2018-06-17T08:55:40.384Z,26.35
2018-06-17T08:58:06.707Z,26.38
2018-06-17T09:00:33.012Z,26.44
2018-06-17T09:02:59.300Z,26.52
2018-06-17T09:05:25.601Z,26.57
2018-06-17T09:07:51.902Z,26.62
2018-06-17T09:10:18.227Z,26.66
2018-06-17T09:12:44.517Z,26.69
2018-06-17T09:15:10.810Z,26.73
2018-06-17T09:17:37.158Z,26.77
2018-06-17T09:20:03.453Z,26.84
2018-06-17T09:22:29.744Z,26.89
2018-06-17T09:24:56.069Z,26.93
2018-06-17T09:27:22.363Z,26.96
2018-06-17T09:29:48.659Z,27.00
2018-06-17T09:32:15.003Z,27.04
2018-06-17T09:34:41.255Z,27.09
2018-06-17T09:37:07.582Z,27.15
2018-06-17T09:39:33.873Z,27.17
2018-06-17T09:42:00.184Z,27.19
2018-06-17T09:44:26.512Z,27.24
2018-06-17T09:46:52.792Z,27.30
2018-06-17T09:49:19.118Z,27.35
2018-06-17T09:51:45.415Z,27.41
2018-06-17T09:54:11.705Z,27.49
2018-06-17T09:56:37.995Z,27.54
2018-06-17T09:59:04.294Z,27.36
2018-06-17T10:01:30.591Z,27.42
2018-06-17T10:03:56.885Z,27.53
2018-06-17T10:06:23.216Z,27.64
2018-06-17T10:08:49.526Z,27.78
2018-06-17T10:11:15.821Z,27.88
2018-06-17T10:13:42.160Z,27.82
2018-06-17T10:16:08.450Z,27.62
2018-06-17T10:18:34.741Z,27.45
2018-06-17T10:21:01.060Z,27.38
2018-06-17T10:23:27.362Z,27.55
2018-06-17T10:25:53.655Z,27.73
2018-06-17T10:28:20.001Z,27.85
2018-06-17T10:30:46.297Z,27.83
2018-06-17T10:35:38.942Z,27.57
2018-06-17T10:38:05.237Z,27.43
2018-06-17T10:40:31.530Z,27.33
2018-06-17T10:42:57.856Z,27.23
2018-06-17T10:45:24.148Z,27.14
2018-06-17T10:47:50.434Z,27.12
2018-06-17T10:50:16.730Z,27.13
2018-06-17T10:52:43.020Z,27.33
2018-06-17T10:55:09.342Z,27.53
2018-06-17T10:57:35.635Z,27.68
2018-06-17T11:00:01.925Z,27.75
2018-06-17T11:02:28.220Z,27.78
2018-06-17T11:04:54.512Z,27.77
2018-06-17T11:07:23.102Z,27.77
2018-06-17T11:09:49.443Z,27.71
2018-06-17T11:12:15.735Z,27.74
2018-06-17T11:14:42.038Z,27.77
2018-06-17T11:17:10.560Z,27.73
2018-06-17T11:19:36.925Z,27.72
2018-06-17T11:22:03.168Z,27.71
2018-06-17T11:24:29.454Z,27.73
2018-06-17T11:26:55.780Z,27.69
2018-06-17T11:29:22.072Z,27.59
2018-06-17T11:31:48.381Z,27.63
2018-06-17T11:34:14.673Z,27.61
2018-06-17T11:36:40.959Z,27.65
2018-06-17T11:39:07.313Z,27.63
2018-06-17T11:41:33.647Z,27.65
2018-06-17T11:44:00.003Z,27.64
2018-06-17T11:46:26.323Z,27.55
2018-06-17T11:48:52.610Z,27.51
2018-06-17T11:51:19.146Z,27.42
2018-06-17T11:53:45.615Z,27.39
2018-06-17T11:56:11.902Z,27.35
2018-06-17T11:58:38.217Z,27.31
2018-06-17T12:01:04.549Z,27.28
2018-06-17T12:03:30.862Z,27.27
2018-06-17T12:05:57.148Z,27.26
2018-06-17T12:08:23.482Z,27.27
2018-06-17T12:10:49.780Z,27.24
2018-06-17T12:13:16.086Z,27.27
2018-06-17T12:15:42.418Z,27.28
2018-06-17T12:18:08.708Z,27.17
2018-06-17T12:20:35.005Z,27.02
2018-06-17T12:23:01.325Z,26.78
2018-06-17T12:25:27.716Z,26.62
2018-06-17T12:27:53.957Z,26.46
2018-06-17T12:30:20.281Z,26.32
2018-06-17T12:32:46.577Z,26.20
2018-06-17T12:35:13.161Z,26.12
2018-06-17T12:37:39.511Z,25.99
2018-06-17T12:40:05.795Z,25.84
2018-06-17T12:42:32.084Z,25.80
2018-06-17T12:44:58.457Z,25.86
2018-06-17T12:47:24.755Z,26.06
2018-06-17T12:49:51.055Z,26.24
2018-06-17T12:52:17.348Z,26.33
2018-06-17T12:54:43.634Z,26.32
2018-06-17T12:57:10.010Z,26.32
2018-06-17T12:59:36.320Z,26.34
2018-06-17T13:02:02.666Z,26.31
2018-06-17T13:04:28.913Z,26.27
2018-06-17T13:06:55.344Z,26.33
2018-06-17T13:09:22.278Z,26.43
2018-06-17T13:11:48.576Z,26.50
2018-06-17T13:14:14.884Z,26.52
2018-06-17T13:16:41.218Z,26.37
2018-06-17T13:19:07.535Z,26.29
2018-06-17T13:21:34.874Z,26.33
2018-06-17T13:24:01.163Z,26.33
2018-06-17T13:26:27.459Z,26.30
2018-06-17T13:28:53.807Z,26.28
2018-06-17T13:31:20.170Z,26.10
2018-06-17T13:33:46.461Z,25.96
2018-06-17T13:36:12.793Z,25.94
2018-06-17T13:38:39.082Z,26.01
2018-06-17T13:41:05.374Z,26.07
2018-06-17T13:43:31.716Z,26.09
2018-06-17T13:45:58.005Z,26.11
2018-06-17T13:48:24.290Z,26.10
2018-06-17T13:50:50.588Z,26.08
2018-06-17T13:53:16.917Z,26.09
2018-06-17T13:55:43.208Z,26.03
2018-06-17T13:58:09.515Z,25.97
2018-06-17T14:00:35.799Z,25.93
2018-06-17T14:03:02.347Z,25.85
2018-06-17T14:05:28.668Z,25.77
2018-06-17T14:07:54.958Z,25.69
2018-06-17T14:10:21.247Z,25.64
2018-06-17T14:12:47.539Z,25.62
2018-06-17T14:15:13.826Z,25.63
2018-06-17T14:17:40.160Z,25.63
2018-06-17T14:20:06.461Z,25.68
2018-06-17T14:22:32.747Z,25.68
2018-06-17T14:24:59.062Z,25.66
2018-06-17T14:27:25.359Z,25.65
2018-06-17T14:29:51.646Z,25.59
2018-06-17T14:32:17.967Z,25.56
2018-06-17T14:34:44.260Z,25.57
2018-06-17T14:37:10.547Z,25.52
2018-06-17T14:39:36.866Z,25.50
2018-06-17T14:42:03.166Z,25.50
2018-06-17T14:44:29.456Z,25.55
2018-06-17T14:46:58.066Z,25.55
2018-06-17T14:49:24.359Z,25.55
2018-06-17T14:51:50.608Z,25.54
2018-06-17T14:54:16.928Z,25.49
2018-06-17T14:56:43.222Z,25.52
2018-06-17T14:59:09.508Z,25.55
2018-06-17T15:01:35.847Z,25.54
2018-06-17T15:04:02.135Z,25.54
2018-06-17T15:06:28.428Z,25.55
2018-06-17T15:08:54.758Z,25.52
2018-06-17T15:11:21.033Z,25.49
2018-06-17T15:13:47.321Z,25.42
2018-06-17T15:16:13.647Z,25.38
2018-06-17T15:18:39.939Z,25.37
2018-06-17T15:21:06.232Z,25.38
2018-06-17T15:23:32.525Z,25.42
2018-06-17T15:25:58.826Z,25.46
2018-06-17T15:28:25.199Z,25.21
2018-06-17T15:30:51.501Z,25.13
2018-06-17T15:33:17.796Z,25.10
2018-06-17T15:35:44.117Z,25.10
2018-06-17T15:38:10.417Z,25.09
2018-06-17T15:40:36.754Z,25.11
2018-06-17T15:43:03.060Z,25.19
2018-06-17T15:45:29.392Z,25.25
2018-06-17T15:47:55.719Z,25.21
2018-06-17T15:50:22.016Z,25.21
2018-06-17T15:52:48.299Z,25.24
2018-06-17T15:55:14.615Z,25.32
2018-06-17T15:57:40.888Z,25.31
2018-06-17T16:00:07.215Z,25.24
2018-06-17T16:02:33.521Z,25.26
2018-06-17T16:04:59.845Z,25.25
2018-06-17T16:07:26.141Z,25.24
2018-06-17T16:09:52.427Z,25.21
2018-06-17T16:12:18.787Z,25.18
2018-06-17T16:14:45.112Z,25.13
2018-06-17T16:17:11.416Z,25.03
2018-06-17T16:19:37.780Z,24.99
2018-06-17T16:22:04.068Z,24.96
2018-06-17T16:24:30.358Z,24.93
2018-06-17T16:26:56.659Z,24.86
2018-06-17T16:29:22.983Z,24.74
2018-06-17T16:31:49.293Z,24.54
2018-06-17T16:34:15.586Z,24.45
2018-06-17T16:36:41.882Z,24.38
2018-06-17T16:39:08.282Z,24.30
2018-06-17T16:41:34.574Z,24.22
2018-06-17T16:44:00.864Z,24.15
2018-06-17T16:46:27.167Z,24.12
2018-06-17T16:48:53.507Z,24.19
2018-06-17T16:51:19.841Z,24.27
2018-06-17T16:53:46.215Z,24.21
2018-06-17T16:56:12.504Z,24.06
2018-06-17T16:58:38.830Z,23.88
2018-06-17T17:01:05.252Z,23.76
2018-06-17T17:03:31.613Z,23.70
2018-06-17T17:05:58.522Z,23.64
2018-06-17T17:08:24.823Z,23.65
2018-06-17T17:10:51.152Z,23.74
2018-06-17T17:13:17.490Z,23.80
2018-06-17T17:15:43.788Z,23.78
2018-06-17T17:18:10.074Z,23.67
2018-06-17T17:20:36.394Z,23.63
2018-06-17T17:23:02.693Z,23.64
2018-06-17T17:25:28.985Z,23.69
2018-06-17T17:27:55.316Z,23.70
2018-06-17T17:30:21.609Z,23.66
2018-06-17T17:32:47.944Z,23.61
2018-06-17T17:35:14.259Z,23.61
2018-06-17T17:37:40.570Z,23.62
2018-06-17T17:40:06.871Z,23.66
2018-06-17T17:42:33.168Z,23.70
2018-06-17T17:44:59.509Z,23.70
2018-06-17T17:47:25.812Z,23.64
2018-06-17T17:49:52.106Z,23.60
2018-06-17T17:52:18.404Z,23.58
2018-06-17T17:54:44.694Z,23.58
2018-06-17T17:57:10.990Z,23.56
2018-06-17T17:59:37.284Z,23.53
2018-06-17T18:02:03.612Z,23.51
2018-06-17T18:04:29.911Z,23.49
2018-06-17T18:06:56.206Z,23.48
2018-06-17T18:09:22.533Z,23.48
2018-06-17T18:11:48.824Z,23.48
2018-06-17T18:14:15.113Z,23.46
2018-06-17T18:16:41.436Z,23.43
2018-06-17T18:19:07.729Z,23.40
2018-06-17T18:21:34.021Z,23.37
2018-06-17T18:24:00.323Z,23.36
2018-06-17T18:26:26.610Z,23.35
2018-06-17T18:28:52.937Z,23.33
2018-06-17T18:31:19.230Z,23.33
2018-06-17T18:33:45.525Z,23.29
2018-06-17T18:36:12.089Z,23.27
2018-06-17T18:38:38.320Z,23.26
2018-06-17T18:41:04.640Z,23.28
2018-06-17T18:43:30.940Z,23.31
2018-06-17T18:45:57.230Z,23.31
2018-06-17T18:48:23.524Z,23.31
2018-06-17T18:50:49.822Z,23.31
2018-06-17T18:53:16.146Z,23.29
2018-06-17T18:55:42.437Z,23.23
2018-06-17T18:58:08.729Z,23.21
2018-06-17T19:00:35.032Z,23.18
2018-06-17T19:03:01.320Z,23.19
2018-06-17T19:05:27.644Z,23.19
2018-06-17T19:07:53.933Z,23.17
2018-06-17T19:10:20.227Z,23.19
2018-06-17T19:12:46.571Z,23.20
2018-06-17T19:15:12.879Z,23.20
2018-06-17T19:17:39.180Z,23.18
2018-06-17T19:20:05.506Z,23.17
2018-06-17T19:22:31.809Z,23.16
2018-06-17T19:24:58.987Z,23.14
2018-06-17T19:27:25.526Z,23.13
2018-06-17T19:29:51.812Z,23.12
2018-06-17T19:32:18.105Z,23.10
2018-06-17T19:34:44.392Z,23.10
2018-06-17T19:37:10.736Z,23.08
2018-06-17T19:39:37.027Z,23.07
2018-06-17T19:42:03.321Z,23.06
2018-06-17T19:44:29.642Z,23.04
2018-06-17T19:46:55.957Z,22.99
2018-06-17T19:49:22.315Z,22.94
2018-06-17T19:51:48.545Z,22.88
2018-06-17T19:54:14.839Z,22.83
2018-06-17T19:56:41.174Z,22.80
2018-06-17T19:59:07.466Z,22.77
2018-06-17T20:01:33.761Z,22.74
2018-06-17T20:04:00.101Z,22.70
2018-06-17T20:06:26.572Z,22.66
2018-06-17T20:08:52.713Z,22.65
2018-06-17T20:11:19.010Z,22.63
2018-06-17T20:13:45.361Z,22.60
2018-06-17T20:16:11.646Z,22.57
2018-06-17T20:18:37.948Z,22.54
2018-06-17T20:21:04.241Z,22.50
2018-06-17T20:23:30.545Z,22.47
2018-06-17T20:25:56.851Z,22.46
2018-06-17T20:28:23.183Z,22.45
2018-06-17T20:30:49.479Z,22.45
2018-06-17T20:33:15.786Z,22.44
2018-06-17T20:35:42.142Z,22.44
2018-06-17T20:38:08.405Z,22.42
2018-06-17T20:40:34.700Z,22.39
2018-06-17T20:43:01.022Z,22.38
2018-06-17T20:45:27.317Z,22.36
2018-06-17T20:47:53.661Z,22.37
2018-06-17T20:50:19.928Z,22.37
2018-06-17T20:52:46.226Z,22.36
2018-06-17T20:55:12.568Z,22.35
2018-06-17T20:57:38.903Z,22.34
2018-06-17T21:00:05.203Z,22.32
2018-06-17T21:02:31.505Z,22.31
2018-06-17T21:04:57.809Z,22.28
2018-06-17T21:07:24.109Z,22.23
2018-06-17T21:09:50.453Z,22.17
2018-06-17T21:12:16.750Z,22.12
2018-06-17T21:14:43.047Z,22.09
2018-06-17T21:17:09.343Z,22.03
2018-06-17T21:19:35.637Z,22.02
2018-06-17T21:22:01.956Z,21.98
2018-06-17T21:24:28.288Z,22.00
2018-06-17T21:26:54.604Z,22.00
2018-06-17T21:29:20.913Z,22.01
2018-06-17T21:31:47.218Z,22.01
2018-06-17T21:34:13.605Z,22.03
2018-06-17T21:36:39.920Z,22.03
2018-06-17T21:39:06.206Z,22.03
2018-06-17T21:41:32.512Z,21.97
2018-06-17T21:43:58.806Z,21.90
2018-06-17T21:46:25.147Z,21.87
2018-06-17T21:48:51.446Z,21.77
2018-06-17T21:51:17.739Z,21.76
2018-06-17T21:53:44.033Z,21.75
2018-06-17T21:56:10.325Z,21.72
2018-06-17T21:58:36.647Z,21.69
2018-06-17T22:01:02.938Z,21.63
2018-06-17T22:03:29.233Z,21.67
2018-06-17T22:05:55.529Z,21.69
2018-06-17T22:08:21.817Z,21.68
2018-06-17T22:10:48.138Z,21.68
2018-06-17T22:13:14.440Z,21.68
2018-06-17T22:15:40.742Z,21.66
2018-06-17T22:18:07.028Z,21.65
2018-06-17T22:20:33.329Z,21.63
2018-06-17T22:22:59.647Z,21.61
2018-06-17T22:25:25.945Z,21.60
2018-06-17T22:27:52.233Z,21.61
2018-06-17T22:30:18.552Z,21.60
2018-06-17T22:32:44.866Z,21.60
2018-06-17T22:35:11.167Z,21.59
2018-06-17T22:37:37.464Z,21.54
2018-06-17T22:40:03.760Z,21.45
2018-06-17T22:42:30.098Z,21.40
2018-06-17T22:44:56.376Z,21.39
2018-06-17T22:47:22.669Z,21.40
2018-06-17T22:49:48.967Z,21.40
2018-06-17T22:52:15.261Z,21.39
2018-06-17T22:54:41.586Z,21.39
2018-06-17T22:57:07.883Z,21.37
2018-06-17T22:59:34.168Z,21.37
2018-06-17T23:02:00.488Z,21.36
2018-06-17T23:04:26.781Z,21.36
2018-06-17T23:06:53.074Z,21.33
2018-06-17T23:09:19.405Z,21.33
2018-06-17T23:11:45.699Z,21.34
2018-06-17T23:14:11.991Z,21.32
2018-06-17T23:16:38.288Z,21.29
2018-06-17T23:19:04.578Z,21.29
2018-06-17T23:21:30.900Z,21.27
2018-06-17T23:23:57.188Z,21.26
2018-06-17T23:26:23.480Z,21.23
2018-06-17T23:28:49.804Z,21.22
2018-06-17T23:31:16.094Z,21.18
2018-06-17T23:33:42.386Z,21.17
2018-06-17T23:36:08.681Z,21.15
2018-06-17T23:38:34.974Z,21.09
2018-06-17T23:41:01.312Z,21.02
2018-06-17T23:43:27.610Z,21.00
2018-06-17T23:45:53.916Z,20.99
2018-06-17T23:48:20.230Z,20.99
2018-06-17T23:50:46.521Z,20.98
2018-06-17T23:53:12.817Z,20.97
2018-06-17T23:55:39.113Z,20.97
2018-06-17T23:58:05.406Z,20.96
